sensor_id;sensor_type;location;lat;lon;timestamp;temperature;humidity
9329;DHT22;4703;48.748;19.142;2024-03-22T00:02:02;12.10;96.40
9329;DHT22;4703;48.748;19.142;2024-03-22T00:04:28;11.50;96.10
9329;DHT22;4703;48.748;19.142;2024-03-22T00:06:55;11.20;96.20
9329;DHT22;4703;48.748;19.142;2024-03-22T00:09:21;11.30;96.30
9329;DHT22;4703;48.748;19.142;2024-03-22T00:11:47;10.30;96.10
9329;DHT22;4703;48.748;19.142;2024-03-22T00:14:13;12.10;97.00
9329;DHT22;4703;48.748;19.142;2024-03-22T00:16:39;11.60;96.90
9329;DHT22;4703;48.748;19.142;2024-03-22T00:19:05;10.10;96.30
9329;DHT22;4703;48.748;19.142;2024-03-22T00:21:31;10.00;96.40
9329;DHT22;4703;48.748;19.142;2024-03-22T00:23:57;11.70;97.40
9329;DHT22;4703;48.748;19.142;2024-03-22T00:26:23;11.90;97.70
9329;DHT22;4703;48.748;19.142;2024-03-22T00:28:49;11.20;97.70
9329;DHT22;4703;48.748;19.142;2024-03-22T00:31:16;10.50;97.70
9329;DHT22;4703;48.748;19.142;2024-03-22T00:33:42;10.00;97.60
9329;DHT22;4703;48.748;19.142;2024-03-22T00:36:08;11.80;98.60
9329;DHT22;4703;48.748;19.142;2024-03-22T00:38:34;9.90;98.40
9329;DHT22;4703;48.748;19.142;2024-03-22T00:41:01;9.80;98.40
9329;DHT22;4703;48.748;19.142;2024-03-22T00:43:27;9.80;98.80
9329;DHT22;4703;48.748;19.142;2024-03-22T00:45:53;10.40;98.70
9329;DHT22;4703;48.748;19.142;2024-03-22T00:48:19;12.10;99.70
9329;DHT22;4703;48.748;19.142;2024-03-22T00:50:45;12.10;99.90
9329;DHT22;4703;48.748;19.142;2024-03-22T00:53:11;11.70;99.90
9329;DHT22;4703;48.748;19.142;2024-03-22T00:55:38;11.00;99.90
9329;DHT22;4703;48.748;19.142;2024-03-22T00:58:04;12.20;99.90
9329;DHT22;4703;48.748;19.142;2024-03-22T01:00:30;9.70;99.90
9329;DHT22;4703;48.748;19.142;2024-03-22T01:02:56;12.30;99.90
9329;DHT22;4703;48.748;19.142;2024-03-22T01:05:22;11.20;99.90
9329;DHT22;4703;48.748;19.142;2024-03-22T01:07:48;10.30;99.90
9329;DHT22;4703;48.748;19.142;2024-03-22T01:10:14;10.70;99.90
9329;DHT22;4703;48.748;19.142;2024-03-22T01:12:40;10.60;99.90
9329;DHT22;4703;48.748;19.142;2024-03-22T01:15:07;10.30;99.90
9329;DHT22;4703;48.748;19.142;2024-03-22T01:17:34;9.60;99.90
9329;DHT22;4703;48.748;19.142;2024-03-22T01:20:00;9.60;99.90
9329;DHT22;4703;48.748;19.142;2024-03-22T01:22:26;10.50;99.90
9329;DHT22;4703;48.748;19.142;2024-03-22T01:24:52;9.60;99.90
9329;DHT22;4703;48.748;19.142;2024-03-22T01:27:19;9.60;99.90
9329;DHT22;4703;48.748;19.142;2024-03-22T01:29:46;11.10;99.90
9329;DHT22;4703;48.748;19.142;2024-03-22T01:32:13;10.10;99.90
9329;DHT22;4703;48.748;19.142;2024-03-22T01:34:39;11.20;99.90
9329;DHT22;4703;48.748;19.142;2024-03-22T01:37:05;11.00;99.90
9329;DHT22;4703;48.748;19.142;2024-03-22T01:39:32;9.70;99.90
9329;DHT22;4703;48.748;19.142;2024-03-22T01:41:58;10.20;99.90
9329;DHT22;4703;48.748;19.142;2024-03-22T01:44:28;10.40;99.90
9329;DHT22;4703;48.748;19.142;2024-03-22T01:46:54;10.70;99.90
9329;DHT22;4703;48.748;19.142;2024-03-22T01:49:21;9.60;99.90
9329;DHT22;4703;48.748;19.142;2024-03-22T01:51:47;11.40;99.90
9329;DHT22;4703;48.748;19.142;2024-03-22T01:54:16;11.70;99.90
9329;DHT22;4703;48.748;19.142;2024-03-22T01:56:42;11.80;99.90
9329;DHT22;4703;48.748;19.142;2024-03-22T01:59:09;9.80;99.90
9329;DHT22;4703;48.748;19.142;2024-03-22T02:01:35;9.50;99.90
9329;DHT22;4703;48.748;19.142;2024-03-22T02:04:02;11.70;99.90
9329;DHT22;4703;48.748;19.142;2024-03-22T02:06:28;9.50;99.90
9329;DHT22;4703;48.748;19.142;2024-03-22T02:08:54;10.70;99.90
9329;DHT22;4703;48.748;19.142;2024-03-22T02:11:21;10.60;99.90
9329;DHT22;4703;48.748;19.142;2024-03-22T02:13:47;11.90;99.90
9329;DHT22;4703;48.748;19.142;2024-03-22T02:16:13;9.50;99.90
9329;DHT22;4703;48.748;19.142;2024-03-22T02:18:39;11.70;99.90
9329;DHT22;4703;48.748;19.142;2024-03-22T02:21:05;8.80;99.90
9329;DHT22;4703;48.748;19.142;2024-03-22T02:23:38;10.60;99.90
9329;DHT22;4703;48.748;19.142;2024-03-22T02:26:06;10.90;99.90
9329;DHT22;4703;48.748;19.142;2024-03-22T02:28:34;11.70;99.90
9329;DHT22;4703;48.748;19.142;2024-03-22T02:31:04;11.20;99.90
9329;DHT22;4703;48.748;19.142;2024-03-22T02:33:31;11.30;99.90
9329;DHT22;4703;48.748;19.142;2024-03-22T02:35:57;9.30;99.90
9329;DHT22;4703;48.748;19.142;2024-03-22T02:38:23;11.30;99.90
9329;DHT22;4703;48.748;19.142;2024-03-22T02:40:51;9.20;99.90
9329;DHT22;4703;48.748;19.142;2024-03-22T02:43:18;9.20;99.90
9329;DHT22;4703;48.748;19.142;2024-03-22T02:45:45;11.40;99.90
9329;DHT22;4703;48.748;19.142;2024-03-22T02:48:11;9.30;99.90
9329;DHT22;4703;48.748;19.142;2024-03-22T02:50:38;9.20;99.90
9329;DHT22;4703;48.748;19.142;2024-03-22T02:53:05;9.10;99.90
9329;DHT22;4703;48.748;19.142;2024-03-22T02:55:39;9.90;99.90
9329;DHT22;4703;48.748;19.142;2024-03-22T02:58:06;9.10;99.90
9329;DHT22;4703;48.748;19.142;2024-03-22T03:00:37;9.90;99.90
9329;DHT22;4703;48.748;19.142;2024-03-22T03:03:07;9.10;99.90
9329;DHT22;4703;48.748;19.142;2024-03-22T03:05:34;11.50;99.90
9329;DHT22;4703;48.748;19.142;2024-03-22T03:08:03;9.00;99.90
9329;DHT22;4703;48.748;19.142;2024-03-22T03:10:29;9.00;99.90
9329;DHT22;4703;48.748;19.142;2024-03-22T03:12:55;11.40;99.90
9329;DHT22;4703;48.748;19.142;2024-03-22T03:15:21;11.40;99.90
9329;DHT22;4703;48.748;19.142;2024-03-22T03:17:48;9.80;99.90
9329;DHT22;4703;48.748;19.142;2024-03-22T03:20:14;9.10;99.90
9329;DHT22;4703;48.748;19.142;2024-03-22T03:22:41;9.00;99.90
9329;DHT22;4703;48.748;19.142;2024-03-22T03:25:07;10.10;99.90
9329;DHT22;4703;48.748;19.142;2024-03-22T03:27:33;9.00;99.90
9329;DHT22;4703;48.748;19.142;2024-03-22T03:30:00;11.50;99.90
9329;DHT22;4703;48.748;19.142;2024-03-22T03:32:27;11.30;99.90
9329;DHT22;4703;48.748;19.142;2024-03-22T03:34:53;11.70;99.90
9329;DHT22;4703;48.748;19.142;2024-03-22T03:37:19;9.30;99.90
9329;DHT22;4703;48.748;19.142;2024-03-22T03:39:45;11.10;99.90
9329;DHT22;4703;48.748;19.142;2024-03-22T03:42:11;9.30;99.90
9329;DHT22;4703;48.748;19.142;2024-03-22T03:44:37;9.40;99.90
9329;DHT22;4703;48.748;19.142;2024-03-22T03:47:03;11.60;99.90
9329;DHT22;4703;48.748;19.142;2024-03-22T03:49:29;8.90;99.90
9329;DHT22;4703;48.748;19.142;2024-03-22T03:51:55;11.10;99.90
9329;DHT22;4703;48.748;19.142;2024-03-22T03:54:21;9.80;99.90
9329;DHT22;4703;48.748;19.142;2024-03-22T03:56:47;8.90;99.90
9329;DHT22;4703;48.748;19.142;2024-03-22T03:59:13;10.60;99.90
9329;DHT22;4703;48.748;19.142;2024-03-22T04:01:39;10.30;99.90
9329;DHT22;4703;48.748;19.142;2024-03-22T04:04:05;11.20;99.90
9329;DHT22;4703;48.748;19.142;2024-03-22T04:06:31;8.90;99.90
9329;DHT22;4703;48.748;19.142;2024-03-22T04:08:57;8.80;99.90
9329;DHT22;4703;48.748;19.142;2024-03-22T04:11:23;9.90;99.90
9329;DHT22;4703;48.748;19.142;2024-03-22T04:13:49;11.10;99.90
9329;DHT22;4703;48.748;19.142;2024-03-22T04:16:15;8.90;99.90
9329;DHT22;4703;48.748;19.142;2024-03-22T04:18:41;11.10;99.90
9329;DHT22;4703;48.748;19.142;2024-03-22T04:21:07;8.90;99.90
9329;DHT22;4703;48.748;19.142;2024-03-22T04:23:34;11.20;99.90
9329;DHT22;4703;48.748;19.142;2024-03-22T04:26:01;10.40;99.90
9329;DHT22;4703;48.748;19.142;2024-03-22T04:28:29;10.60;99.90
9329;DHT22;4703;48.748;19.142;2024-03-22T04:33:32;8.90;99.90
9329;DHT22;4703;48.748;19.142;2024-03-22T04:35:59;10.10;99.90
9329;DHT22;4703;48.748;19.142;2024-03-22T04:38:26;10.60;99.90
9329;DHT22;4703;48.748;19.142;2024-03-22T04:40:53;8.90;99.90
9329;DHT22;4703;48.748;19.142;2024-03-22T04:43:20;9.90;99.90
9329;DHT22;4703;48.748;19.142;2024-03-22T04:45:47;11.00;99.90
9329;DHT22;4703;48.748;19.142;2024-03-22T04:48:20;10.00;99.90
9329;DHT22;4703;48.748;19.142;2024-03-22T04:50:48;9.80;99.90
9329;DHT22;4703;48.748;19.142;2024-03-22T04:53:19;9.10;99.90
9329;DHT22;4703;48.748;19.142;2024-03-22T04:55:50;8.80;99.90
9329;DHT22;4703;48.748;19.142;2024-03-22T04:58:18;8.80;99.90
9329;DHT22;4703;48.748;19.142;2024-03-22T05:00:46;11.30;99.90
9329;DHT22;4703;48.748;19.142;2024-03-22T05:03:13;10.50;99.90
9329;DHT22;4703;48.748;19.142;2024-03-22T05:05:40;10.60;99.90
9329;DHT22;4703;48.748;19.142;2024-03-22T05:08:07;10.50;99.90
9329;DHT22;4703;48.748;19.142;2024-03-22T05:10:34;11.00;99.90
9329;DHT22;4703;48.748;19.142;2024-03-22T05:13:00;10.60;99.90
9329;DHT22;4703;48.748;19.142;2024-03-22T05:15:26;11.60;99.90
9329;DHT22;4703;48.748;19.142;2024-03-22T05:17:53;8.80;99.90
9329;DHT22;4703;48.748;19.142;2024-03-22T05:20:21;11.10;99.90
9329;DHT22;4703;48.748;19.142;2024-03-22T05:22:47;8.90;99.90
9329;DHT22;4703;48.748;19.142;2024-03-22T05:25:13;8.80;99.90
9329;DHT22;4703;48.748;19.142;2024-03-22T05:27:41;10.90;99.90
9329;DHT22;4703;48.748;19.142;2024-03-22T05:30:09;10.70;99.90
9329;DHT22;4703;48.748;19.142;2024-03-22T05:32:35;8.90;99.90
9329;DHT22;4703;48.748;19.142;2024-03-22T05:35:01;8.90;99.90
9329;DHT22;4703;48.748;19.142;2024-03-22T05:37:27;11.00;99.90
9329;DHT22;4703;48.748;19.142;2024-03-22T05:39:54;10.20;99.90
9329;DHT22;4703;48.748;19.142;2024-03-22T05:42:20;10.80;99.90
9329;DHT22;4703;48.748;19.142;2024-03-22T05:44:47;10.00;99.90
9329;DHT22;4703;48.748;19.142;2024-03-22T05:47:14;8.90;99.90
9329;DHT22;4703;48.748;19.142;2024-03-22T05:49:40;11.50;99.90
9329;DHT22;4703;48.748;19.142;2024-03-22T05:52:06;10.00;99.90
9329;DHT22;4703;48.748;19.142;2024-03-22T05:54:32;9.00;99.90
9329;DHT22;4703;48.748;19.142;2024-03-22T05:56:58;10.20;99.90
9329;DHT22;4703;48.748;19.142;2024-03-22T05:59:24;10.70;99.90
9329;DHT22;4703;48.748;19.142;2024-03-22T06:01:50;9.10;99.90
9329;DHT22;4703;48.748;19.142;2024-03-22T06:04:16;11.20;99.90
9329;DHT22;4703;48.748;19.142;2024-03-22T06:06:42;10.50;99.90
9329;DHT22;4703;48.748;19.142;2024-03-22T06:09:08;9.10;99.90
9329;DHT22;4703;48.748;19.142;2024-03-22T06:11:37;11.50;99.90
9329;DHT22;4703;48.748;19.142;2024-03-22T06:14:02;9.10;99.90
9329;DHT22;4703;48.748;19.142;2024-03-22T06:16:28;9.20;99.90
9329;DHT22;4703;48.748;19.142;2024-03-22T06:18:54;10.70;99.90
9329;DHT22;4703;48.748;19.142;2024-03-22T06:21:20;10.30;99.90
9329;DHT22;4703;48.748;19.142;2024-03-22T06:23:51;9.20;99.90
9329;DHT22;4703;48.748;19.142;2024-03-22T06:26:18;10.60;99.90
9329;DHT22;4703;48.748;19.142;2024-03-22T06:28:44;10.00;99.90
9329;DHT22;4703;48.748;19.142;2024-03-22T06:31:10;11.00;99.90
9329;DHT22;4703;48.748;19.142;2024-03-22T06:33:36;10.50;99.90
9329;DHT22;4703;48.748;19.142;2024-03-22T06:36:02;10.40;99.90
9329;DHT22;4703;48.748;19.142;2024-03-22T06:38:29;9.50;99.90
9329;DHT22;4703;48.748;19.142;2024-03-22T06:40:55;9.80;99.90
9329;DHT22;4703;48.748;19.142;2024-03-22T06:43:21;11.70;99.90
9329;DHT22;4703;48.748;19.142;2024-03-22T06:45:47;11.80;99.90
9329;DHT22;4703;48.748;19.142;2024-03-22T06:48:13;12.00;99.90
9329;DHT22;4703;48.748;19.142;2024-03-22T06:50:41;11.80;99.90
9329;DHT22;4703;48.748;19.142;2024-03-22T06:53:08;11.40;99.90
9329;DHT22;4703;48.748;19.142;2024-03-22T06:55:35;9.80;99.90
9329;DHT22;4703;48.748;19.142;2024-03-22T06:58:01;11.90;99.90
9329;DHT22;4703;48.748;19.142;2024-03-22T07:00:28;9.90;99.90
9329;DHT22;4703;48.748;19.142;2024-03-22T07:02:54;11.00;99.90
9329;DHT22;4703;48.748;19.142;2024-03-22T07:05:24;11.40;99.90
9329;DHT22;4703;48.748;19.142;2024-03-22T07:07:50;10.30;99.90
9329;DHT22;4703;48.748;19.142;2024-03-22T07:10:16;11.00;99.90
9329;DHT22;4703;48.748;19.142;2024-03-22T07:12:42;10.20;99.90
9329;DHT22;4703;48.748;19.142;2024-03-22T07:15:09;11.30;99.90
9329;DHT22;4703;48.748;19.142;2024-03-22T07:17:35;11.50;99.90
9329;DHT22;4703;48.748;19.142;2024-03-22T07:20:01;11.90;99.90
9329;DHT22;4703;48.748;19.142;2024-03-22T07:22:27;9.40;99.90
9329;DHT22;4703;48.748;19.142;2024-03-22T07:24:53;12.50;99.90
9329;DHT22;4703;48.748;19.142;2024-03-22T07:27:20;10.90;99.90
9329;DHT22;4703;48.748;19.142;2024-03-22T07:29:46;11.50;99.90
9329;DHT22;4703;48.748;19.142;2024-03-22T07:32:12;10.50;99.90
9329;DHT22;4703;48.748;19.142;2024-03-22T07:34:38;11.60;99.90
9329;DHT22;4703;48.748;19.142;2024-03-22T07:37:04;10.50;99.90
9329;DHT22;4703;48.748;19.142;2024-03-22T07:39:30;11.70;99.90
9329;DHT22;4703;48.748;19.142;2024-03-22T07:41:56;11.10;99.90
9329;DHT22;4703;48.748;19.142;2024-03-22T07:44:22;12.20;99.90
9329;DHT22;4703;48.748;19.142;2024-03-22T07:46:54;11.00;99.90
9329;DHT22;4703;48.748;19.142;2024-03-22T07:49:20;12.70;99.90
9329;DHT22;4703;48.748;19.142;2024-03-22T07:51:47;12.30;99.90
9329;DHT22;4703;48.748;19.142;2024-03-22T07:54:13;12.30;99.90
9329;DHT22;4703;48.748;19.142;2024-03-22T07:56:39;12.40;99.90
9329;DHT22;4703;48.748;19.142;2024-03-22T07:59:05;11.90;99.90
9329;DHT22;4703;48.748;19.142;2024-03-22T08:01:31;11.90;99.70
9329;DHT22;4703;48.748;19.142;2024-03-22T08:03:57;12.70;99.90
9329;DHT22;4703;48.748;19.142;2024-03-22T08:06:24;12.70;99.60
9329;DHT22;4703;48.748;19.142;2024-03-22T08:08:50;11.60;99.30
9329;DHT22;4703;48.748;19.142;2024-03-22T08:11:16;12.60;99.60
9329;DHT22;4703;48.748;19.142;2024-03-22T08:13:42;12.00;99.30
9329;DHT22;4703;48.748;19.142;2024-03-22T08:16:08;11.50;98.90
9329;DHT22;4703;48.748;19.142;2024-03-22T08:18:34;12.30;99.50
9329;DHT22;4703;48.748;19.142;2024-03-22T08:21:00;12.70;99.10
9329;DHT22;4703;48.748;19.142;2024-03-22T08:23:26;12.60;99.10
9329;DHT22;4703;48.748;19.142;2024-03-22T08:25:53;12.10;98.60
9329;DHT22;4703;48.748;19.142;2024-03-22T08:28:19;12.70;98.50
9329;DHT22;4703;48.748;19.142;2024-03-22T08:30:45;12.20;98.10
9329;DHT22;4703;48.748;19.142;2024-03-22T08:33:11;12.10;98.00
9329;DHT22;4703;48.748;19.142;2024-03-22T08:35:37;12.20;97.90
9329;DHT22;4703;48.748;19.142;2024-03-22T08:38:04;13.20;98.50
9329;DHT22;4703;48.748;19.142;2024-03-22T08:40:31;13.20;98.60
9329;DHT22;4703;48.748;19.142;2024-03-22T08:42:57;12.30;98.20
9329;DHT22;4703;48.748;19.142;2024-03-22T08:45:23;13.00;98.40
9329;DHT22;4703;48.748;19.142;2024-03-22T08:47:49;13.90;99.00
9329;DHT22;4703;48.748;19.142;2024-03-22T08:50:15;13.20;98.70
9329;DHT22;4703;48.748;19.142;2024-03-22T08:52:41;12.40;98.20
9329;DHT22;4703;48.748;19.142;2024-03-22T08:55:08;12.80;98.30
9329;DHT22;4703;48.748;19.142;2024-03-22T08:57:34;12.50;97.80
9329;DHT22;4703;48.748;19.142;2024-03-22T09:00:00;13.30;98.10
9329;DHT22;4703;48.748;19.142;2024-03-22T09:02:26;12.60;98.20
9329;DHT22;4703;48.748;19.142;2024-03-22T09:04:52;13.20;98.80
9329;DHT22;4703;48.748;19.142;2024-03-22T09:07:19;13.10;98.50
9329;DHT22;4703;48.748;19.142;2024-03-22T09:09:45;12.50;98.40
9329;DHT22;4703;48.748;19.142;2024-03-22T09:12:11;12.50;98.20
9329;DHT22;4703;48.748;19.142;2024-03-22T09:14:37;12.50;97.90
9329;DHT22;4703;48.748;19.142;2024-03-22T09:17:04;13.80;98.70
9329;DHT22;4703;48.748;19.142;2024-03-22T09:19:30;12.60;98.30
9329;DHT22;4703;48.748;19.142;2024-03-22T09:21:56;12.70;98.10
9329;DHT22;4703;48.748;19.142;2024-03-22T09:24:22;13.60;98.50
9329;DHT22;4703;48.748;19.142;2024-03-22T09:26:47;12.70;98.30
9329;DHT22;4703;48.748;19.142;2024-03-22T09:29:14;13.90;98.90
9329;DHT22;4703;48.748;19.142;2024-03-22T09:31:40;12.80;98.40
9329;DHT22;4703;48.748;19.142;2024-03-22T09:34:05;13.80;98.90
9329;DHT22;4703;48.748;19.142;2024-03-22T09:36:31;13.60;98.60
9329;DHT22;4703;48.748;19.142;2024-03-22T09:39:01;13.10;98.30
9329;DHT22;4703;48.748;19.142;2024-03-22T09:41:27;13.20;97.80
9329;DHT22;4703;48.748;19.142;2024-03-22T09:43:58;13.50;97.70
9329;DHT22;4703;48.748;19.142;2024-03-22T09:46:26;13.90;97.70
9329;DHT22;4703;48.748;19.142;2024-03-22T09:48:54;14.00;97.50
9329;DHT22;4703;48.748;19.142;2024-03-22T09:51:21;13.40;97.60
9329;DHT22;4703;48.748;19.142;2024-03-22T09:53:49;13.60;97.30
9329;DHT22;4703;48.748;19.142;2024-03-22T09:56:16;14.10;97.70
9329;DHT22;4703;48.748;19.142;2024-03-22T09:58:44;13.80;98.10
9329;DHT22;4703;48.748;19.142;2024-03-22T10:01:12;13.90;98.40
9329;DHT22;4703;48.748;19.142;2024-03-22T10:03:38;14.70;97.90
9329;DHT22;4703;48.748;19.142;2024-03-22T10:06:04;14.20;97.10
9329;DHT22;4703;48.748;19.142;2024-03-22T10:08:30;14.20;97.10
9329;DHT22;4703;48.748;19.142;2024-03-22T10:10:57;14.50;97.00
9329;DHT22;4703;48.748;19.142;2024-03-22T10:13:27;14.40;96.80
9329;DHT22;4703;48.748;19.142;2024-03-22T10:15:53;14.50;96.90
9329;DHT22;4703;48.748;19.142;2024-03-22T10:18:19;15.00;96.80
9329;DHT22;4703;48.748;19.142;2024-03-22T10:20:45;14.80;96.60
9329;DHT22;4703;48.748;19.142;2024-03-22T10:23:11;14.70;95.60
9329;DHT22;4703;48.748;19.142;2024-03-22T10:25:37;14.90;94.50
9329;DHT22;4703;48.748;19.142;2024-03-22T10:28:04;14.80;94.40
9329;DHT22;4703;48.748;19.142;2024-03-22T10:30:30;14.80;93.70
9329;DHT22;4703;48.748;19.142;2024-03-22T10:32:57;15.10;94.10
9329;DHT22;4703;48.748;19.142;2024-03-22T10:35:24;15.20;93.70
9329;DHT22;4703;48.748;19.142;2024-03-22T10:37:51;15.00;92.50
9329;DHT22;4703;48.748;19.142;2024-03-22T10:40:17;15.00;92.30
9329;DHT22;4703;48.748;19.142;2024-03-22T10:42:44;14.90;92.20
9329;DHT22;4703;48.748;19.142;2024-03-22T10:45:12;14.80;92.00
9329;DHT22;4703;48.748;19.142;2024-03-22T10:47:39;15.00;91.80
9329;DHT22;4703;48.748;19.142;2024-03-22T10:50:07;15.10;92.00
9329;DHT22;4703;48.748;19.142;2024-03-22T10:52:39;14.60;91.60
9329;DHT22;4703;48.748;19.142;2024-03-22T10:55:17;14.70;91.80
9329;DHT22;4703;48.748;19.142;2024-03-22T10:57:59;14.50;91.70
9329;DHT22;4703;48.748;19.142;2024-03-22T11:00:33;14.50;92.00
9329;DHT22;4703;48.748;19.142;2024-03-22T11:03:04;14.50;92.30
9329;DHT22;4703;48.748;19.142;2024-03-22T11:05:30;14.60;92.80
9329;DHT22;4703;48.748;19.142;2024-03-22T11:08:04;14.70;92.40
9329;DHT22;4703;48.748;19.142;2024-03-22T11:10:33;14.70;91.60
9329;DHT22;4703;48.748;19.142;2024-03-22T11:13:06;15.20;91.40
9329;DHT22;4703;48.748;19.142;2024-03-22T11:15:33;14.80;91.40
9329;DHT22;4703;48.748;19.142;2024-03-22T11:17:59;14.90;92.10
9329;DHT22;4703;48.748;19.142;2024-03-22T11:20:26;15.10;91.40
9329;DHT22;4703;48.748;19.142;2024-03-22T11:22:53;15.20;90.90
9329;DHT22;4703;48.748;19.142;2024-03-22T11:25:19;15.20;90.20
9329;DHT22;4703;48.748;19.142;2024-03-22T11:27:46;15.40;90.60
9329;DHT22;4703;48.748;19.142;2024-03-22T11:30:12;15.70;90.20
9329;DHT22;4703;48.748;19.142;2024-03-22T11:32:40;15.70;89.90
9329;DHT22;4703;48.748;19.142;2024-03-22T11:35:11;16.00;89.10
9329;DHT22;4703;48.748;19.142;2024-03-22T11:37:41;16.20;89.00
9329;DHT22;4703;48.748;19.142;2024-03-22T11:40:11;16.50;87.50
9329;DHT22;4703;48.748;19.142;2024-03-22T11:42:39;16.70;85.30
9329;DHT22;4703;48.748;19.142;2024-03-22T11:45:08;16.90;84.40
9329;DHT22;4703;48.748;19.142;2024-03-22T11:47:36;17.00;83.30
9329;DHT22;4703;48.748;19.142;2024-03-22T11:50:03;17.20;83.10
9329;DHT22;4703;48.748;19.142;2024-03-22T11:52:29;17.30;85.60
9329;DHT22;4703;48.748;19.142;2024-03-22T11:54:56;17.40;82.80
9329;DHT22;4703;48.748;19.142;2024-03-22T11:57:23;17.30;81.70
9329;DHT22;4703;48.748;19.142;2024-03-22T11:59:50;17.30;81.60
9329;DHT22;4703;48.748;19.142;2024-03-22T12:02:17;17.30;80.60
9329;DHT22;4703;48.748;19.142;2024-03-22T12:04:45;17.40;81.10
9329;DHT22;4703;48.748;19.142;2024-03-22T12:07:17;17.40;81.90
9329;DHT22;4703;48.748;19.142;2024-03-22T12:09:46;17.40;79.90
9329;DHT22;4703;48.748;19.142;2024-03-22T12:12:13;17.70;79.50
9329;DHT22;4703;48.748;19.142;2024-03-22T12:14:40;17.70;78.40
9329;DHT22;4703;48.748;19.142;2024-03-22T12:17:06;17.60;76.80
9329;DHT22;4703;48.748;19.142;2024-03-22T12:19:33;17.40;77.00
9329;DHT22;4703;48.748;19.142;2024-03-22T12:22:00;17.30;76.60
9329;DHT22;4703;48.748;19.142;2024-03-22T12:24:26;17.10;76.40
9329;DHT22;4703;48.748;19.142;2024-03-22T12:26:53;17.00;77.70
9329;DHT22;4703;48.748;19.142;2024-03-22T12:29:19;16.80;78.00
9329;DHT22;4703;48.748;19.142;2024-03-22T12:31:47;16.70;78.50
9329;DHT22;4703;48.748;19.142;2024-03-22T12:34:13;16.80;78.50
9329;DHT22;4703;48.748;19.142;2024-03-22T12:36:39;16.80;79.70
9329;DHT22;4703;48.748;19.142;2024-03-22T12:39:05;16.90;77.60
9329;DHT22;4703;48.748;19.142;2024-03-22T12:41:32;17.00;76.50
9329;DHT22;4703;48.748;19.142;2024-03-22T12:43:59;17.00;76.10
9329;DHT22;4703;48.748;19.142;2024-03-22T12:46:26;17.10;75.90
9329;DHT22;4703;48.748;19.142;2024-03-22T12:48:53;17.10;75.60
9329;DHT22;4703;48.748;19.142;2024-03-22T12:51:20;16.90;75.60
9329;DHT22;4703;48.748;19.142;2024-03-22T12:53:46;16.80;75.60
9329;DHT22;4703;48.748;19.142;2024-03-22T12:56:12;16.90;75.90
9329;DHT22;4703;48.748;19.142;2024-03-22T12:58:38;17.00;75.60
9329;DHT22;4703;48.748;19.142;2024-03-22T13:01:05;16.90;77.00
9329;DHT22;4703;48.748;19.142;2024-03-22T13:03:32;16.80;78.10
9329;DHT22;4703;48.748;19.142;2024-03-22T13:05:58;16.90;78.10
9329;DHT22;4703;48.748;19.142;2024-03-22T13:08:24;16.80;77.60
9329;DHT22;4703;48.748;19.142;2024-03-22T13:10:50;16.80;77.30
9329;DHT22;4703;48.748;19.142;2024-03-22T13:13:18;16.70;77.60
9329;DHT22;4703;48.748;19.142;2024-03-22T13:15:44;16.60;77.10
9329;DHT22;4703;48.748;19.142;2024-03-22T13:18:13;16.50;78.40
9329;DHT22;4703;48.748;19.142;2024-03-22T13:20:39;16.40;78.60
9329;DHT22;4703;48.748;19.142;2024-03-22T13:23:06;16.40;78.60
9329;DHT22;4703;48.748;19.142;2024-03-22T13:25:36;16.30;79.10
9329;DHT22;4703;48.748;19.142;2024-03-22T13:28:03;16.30;79.40
9329;DHT22;4703;48.748;19.142;2024-03-22T13:30:31;16.30;79.50
9329;DHT22;4703;48.748;19.142;2024-03-22T13:32:58;16.30;79.40
9329;DHT22;4703;48.748;19.142;2024-03-22T13:35:25;16.30;78.40
9329;DHT22;4703;48.748;19.142;2024-03-22T13:37:51;16.40;78.00
9329;DHT22;4703;48.748;19.142;2024-03-22T13:40:17;16.40;79.60
9329;DHT22;4703;48.748;19.142;2024-03-22T13:42:43;16.50;79.20
9329;DHT22;4703;48.748;19.142;2024-03-22T13:45:09;16.50;79.00
9329;DHT22;4703;48.748;19.142;2024-03-22T13:47:35;16.60;78.50
9329;DHT22;4703;48.748;19.142;2024-03-22T13:50:04;16.80;78.80
9329;DHT22;4703;48.748;19.142;2024-03-22T13:52:31;16.70;78.10
9329;DHT22;4703;48.748;19.142;2024-03-22T13:54:57;16.90;78.40
9329;DHT22;4703;48.748;19.142;2024-03-22T13:57:25;17.00;77.70
9329;DHT22;4703;48.748;19.142;2024-03-22T13:59:51;17.10;78.70
9329;DHT22;4703;48.748;19.142;2024-03-22T14:02:17;17.40;78.10
9329;DHT22;4703;48.748;19.142;2024-03-22T14:04:44;17.30;75.80
9329;DHT22;4703;48.748;19.142;2024-03-22T14:07:10;17.50;76.10
9329;DHT22;4703;48.748;19.142;2024-03-22T14:09:36;17.10;74.90
9329;DHT22;4703;48.748;19.142;2024-03-22T14:12:02;17.50;75.20
9329;DHT22;4703;48.748;19.142;2024-03-22T14:14:28;17.50;74.80
9329;DHT22;4703;48.748;19.142;2024-03-22T14:16:55;17.50;74.30
9329;DHT22;4703;48.748;19.142;2024-03-22T14:19:21;17.50;75.20
9329;DHT22;4703;48.748;19.142;2024-03-22T14:21:47;17.50;74.20
9329;DHT22;4703;48.748;19.142;2024-03-22T14:24:13;17.50;73.70
9329;DHT22;4703;48.748;19.142;2024-03-22T14:26:39;17.50;73.80
9329;DHT22;4703;48.748;19.142;2024-03-22T14:29:12;17.40;73.80
9329;DHT22;4703;48.748;19.142;2024-03-22T14:31:38;17.40;74.10
9329;DHT22;4703;48.748;19.142;2024-03-22T14:34:08;17.40;74.30
9329;DHT22;4703;48.748;19.142;2024-03-22T14:36:34;17.40;73.70
9329;DHT22;4703;48.748;19.142;2024-03-22T14:39:00;17.40;74.60
9329;DHT22;4703;48.748;19.142;2024-03-22T14:41:33;17.50;74.50
9329;DHT22;4703;48.748;19.142;2024-03-22T14:43:59;17.50;74.90
9329;DHT22;4703;48.748;19.142;2024-03-22T14:46:27;17.60;73.70
9329;DHT22;4703;48.748;19.142;2024-03-22T14:48:54;17.70;73.50
9329;DHT22;4703;48.748;19.142;2024-03-22T14:51:22;17.80;73.50
9329;DHT22;4703;48.748;19.142;2024-03-22T14:53:48;18.00;73.10
9329;DHT22;4703;48.748;19.142;2024-03-22T14:56:15;18.20;71.10
9329;DHT22;4703;48.748;19.142;2024-03-22T14:58:41;18.20;71.90
9329;DHT22;4703;48.748;19.142;2024-03-22T15:01:08;18.30;71.90
9329;DHT22;4703;48.748;19.142;2024-03-22T15:03:35;18.40;71.10
9329;DHT22;4703;48.748;19.142;2024-03-22T15:06:01;18.20;69.90
9329;DHT22;4703;48.748;19.142;2024-03-22T15:08:28;18.10;70.50
9329;DHT22;4703;48.748;19.142;2024-03-22T15:10:54;17.80;70.30
9329;DHT22;4703;48.748;19.142;2024-03-22T15:13:21;17.60;70.90
9329;DHT22;4703;48.748;19.142;2024-03-22T15:15:57;17.30;71.20
9329;DHT22;4703;48.748;19.142;2024-03-22T15:18:25;17.20;71.50
9329;DHT22;4703;48.748;19.142;2024-03-22T15:20:54;17.10;71.90
9329;DHT22;4703;48.748;19.142;2024-03-22T15:23:20;17.00;71.90
9329;DHT22;4703;48.748;19.142;2024-03-22T15:25:47;16.90;72.30
9329;DHT22;4703;48.748;19.142;2024-03-22T15:28:13;16.70;71.20
9329;DHT22;4703;48.748;19.142;2024-03-22T15:30:40;16.60;72.20
9329;DHT22;4703;48.748;19.142;2024-03-22T15:33:07;16.50;72.80
9329;DHT22;4703;48.748;19.142;2024-03-22T15:35:34;16.40;73.30
9329;DHT22;4703;48.748;19.142;2024-03-22T15:38:01;16.30;73.10
9329;DHT22;4703;48.748;19.142;2024-03-22T15:40:30;16.10;73.60
9329;DHT22;4703;48.748;19.142;2024-03-22T15:43:00;16.10;73.70
9329;DHT22;4703;48.748;19.142;2024-03-22T15:45:26;16.00;74.20
9329;DHT22;4703;48.748;19.142;2024-03-22T15:47:53;15.80;73.90
9329;DHT22;4703;48.748;19.142;2024-03-22T15:50:19;15.70;74.40